Mt New Conquest — V7GG4 — position and weather

sailwx.info

Track history (hours):
 
Tides and Currents Weather Stations Pressure Air Temp Water Temp Dewpoint Dewpoint Depression Visibility Wind Speed Wind Dir Waves Ship Positions

Mt New Conquest

Last reported at 2014-Oct-23 18:33 UTC. Time now 2014-Oct-23 18:38 UTC.
Position N 31°54' W 118°54'.

Length 228 m; draft 12.1 m.

Type: Ship (hazmat cat A). MMSI: 538002089.

Date/timePositionNaut miles runAvg speedWind from/ knotsBaromVisibWave heightAir tempDewpointWater temp
2014-Oct-23 18:33N 31°54' W 118°54'6 6.1
2014-Oct-23 17:33N 31°57' W 119°00'2 1.5
2014-Oct-23 16:33N 31°58' W 119°01'3 2.7
2014-Oct-23 15:33N 32°01' W 119°02'8 7.7
2014-Oct-23 14:33N 32°01' W 118°53'1211.7
2014-Oct-23 13:33N 31°60' W 118°39'1211.8
2014-Oct-23 12:33N 31°59' W 118°25'4 3.8
2014-Oct-23 11:33N 31°59' W 118°21'1 0.8
2014-Oct-23 10:33N 31°59' W 118°22'1 0.7
2014-Oct-23 09:33N 31°60' W 118°22'1 0.7
2014-Oct-23 08:33N 31°60' W 118°23'1 0.8
2014-Oct-23 07:33N 32°00' W 118°24'1 0.9
2014-Oct-23 06:33N 32°01' W 118°25'1 1.1
2014-Oct-23 05:33N 32°02' W 118°26'1 1.1
2014-Oct-23 04:33N 32°02' W 118°27'1 1.2
2014-Oct-23 03:33N 32°02' W 118°28'1 1.3
2014-Oct-23 02:33N 32°03' W 118°30'1 1.3
2014-Oct-23 01:33N 32°03' W 118°31'1 1.3
2014-Oct-23 00:33N 32°03' W 118°33'1 1.1
2014-Oct-22 23:34N 32°02' W 118°34'1 1.0
2014-Oct-22 22:33N 32°02' W 118°35'1 1.0
2014-Oct-22 21:33N 32°02' W 118°37'1 1.0
2014-Oct-22 20:33N 32°02' W 118°38'1 1.0
2014-Oct-22 19:33N 32°02' W 118°39'1 1.1
2014-Oct-22 18:33N 32°02' W 118°40'1 1.1
2014-Oct-22 17:33N 32°01' W 118°41'1 1.0
2014-Oct-22 16:33N 32°01' W 118°42'1 0.9
2014-Oct-22 15:33N 32°00' W 118°43'1 1.0
2014-Oct-22 14:33N 31°60' W 118°44'1 0.9
2014-Oct-22 13:33N 31°59' W 118°45'1 1.0
2014-Oct-22 12:33N 31°59' W 118°47'1 1.0
2014-Oct-22 11:28N 31°59' W 118°48'1 1.2
2014-Oct-22 10:32N 31°59' W 118°49'1 1.1
2014-Oct-22 09:33N 31°59' W 118°50'1 1.2
2014-Oct-22 08:32N 31°59' W 118°52'1 1.1
2014-Oct-22 07:33N 31°59' W 118°53'1 1.2
2014-Oct-22 06:33N 31°59' W 118°55'1 1.0
2014-Oct-22 05:33N 31°59' W 118°56'1 1.1
2014-Oct-22 04:33N 31°59' W 118°57'1 1.2
2014-Oct-22 03:33N 31°60' W 118°58'1 1.2
2014-Oct-22 02:31N 31°60' W 118°60'3 3.4
2014-Oct-22 01:33N 31°57' W 118°60'1110.6
2014-Oct-22 00:32N 31°46' W 119°00'1010.8
2014-Oct-21 23:33N 31°35' W 119°01'1111.1
2014-Oct-21 22:31N 31°24' W 119°02'1010.4
2014-Oct-21 21:33N 31°15' W 118°57'1110.7
2014-Oct-21 20:33N 31°06' W 118°51'1111.1
2014-Oct-21 19:33N 30°56' W 118°43'1111.1
2014-Oct-21 18:32N 30°47' W 118°36'2411.4
2014-Oct-21 16:28N 30°28' W 118°21'1311.7
2014-Oct-21 15:23N 30°17' W 118°13'1611.7
2014-Oct-21 14:03N 30°04' W 118°03'  
Track history (hours):
 
Tides and Currents Weather Stations Pressure Air Temp Water Temp Dewpoint Dewpoint Depression Visibility Wind Speed Wind Dir Waves Ship Positions

Mt New Conquest

Last reported at 2014-Oct-23 18:33 UTC. Time now 2014-Oct-23 18:38 UTC.
Position N 31°54' W 118°54'.

Length 228 m; draft 12.1 m.

Type: Ship (hazmat cat A). MMSI: 538002089.

Date/timePositionNaut miles runAvg speedWind from/ knotsBaromVisibWave heightAir tempDewpointWater temp
2014-Oct-23 18:33N 31°54' W 118°54'6 6.1
2014-Oct-23 17:33N 31°57' W 119°00'2 1.5
2014-Oct-23 16:33N 31°58' W 119°01'3 2.7
2014-Oct-23 15:33N 32°01' W 119°02'8 7.7
2014-Oct-23 14:33N 32°01' W 118°53'1211.7
2014-Oct-23 13:33N 31°60' W 118°39'1211.8
2014-Oct-23 12:33N 31°59' W 118°25'4 3.8
2014-Oct-23 11:33N 31°59' W 118°21'1 0.8
2014-Oct-23 10:33N 31°59' W 118°22'1 0.7
2014-Oct-23 09:33N 31°60' W 118°22'1 0.7
2014-Oct-23 08:33N 31°60' W 118°23'1 0.8
2014-Oct-23 07:33N 32°00' W 118°24'1 0.9
2014-Oct-23 06:33N 32°01' W 118°25'1 1.1
2014-Oct-23 05:33N 32°02' W 118°26'1 1.1
2014-Oct-23 04:33N 32°02' W 118°27'1 1.2
2014-Oct-23 03:33N 32°02' W 118°28'1 1.3
2014-Oct-23 02:33N 32°03' W 118°30'1 1.3
2014-Oct-23 01:33N 32°03' W 118°31'1 1.3
2014-Oct-23 00:33N 32°03' W 118°33'1 1.1
2014-Oct-22 23:34N 32°02' W 118°34'1 1.0
2014-Oct-22 22:33N 32°02' W 118°35'1 1.0
2014-Oct-22 21:33N 32°02' W 118°37'1 1.0
2014-Oct-22 20:33N 32°02' W 118°38'1 1.0
2014-Oct-22 19:33N 32°02' W 118°39'1 1.1
2014-Oct-22 18:33N 32°02' W 118°40'1 1.1
2014-Oct-22 17:33N 32°01' W 118°41'1 1.0
2014-Oct-22 16:33N 32°01' W 118°42'1 0.9
2014-Oct-22 15:33N 32°00' W 118°43'1 1.0
2014-Oct-22 14:33N 31°60' W 118°44'1 0.9
2014-Oct-22 13:33N 31°59' W 118°45'1 1.0
2014-Oct-22 12:33N 31°59' W 118°47'1 1.0
2014-Oct-22 11:28N 31°59' W 118°48'1 1.2
2014-Oct-22 10:32N 31°59' W 118°49'1 1.1
2014-Oct-22 09:33N 31°59' W 118°50'1 1.2
2014-Oct-22 08:32N 31°59' W 118°52'1 1.1
2014-Oct-22 07:33N 31°59' W 118°53'1 1.2
2014-Oct-22 06:33N 31°59' W 118°55'1 1.0
2014-Oct-22 05:33N 31°59' W 118°56'1 1.1
2014-Oct-22 04:33N 31°59' W 118°57'1 1.2
2014-Oct-22 03:33N 31°60' W 118°58'1 1.2
2014-Oct-22 02:31N 31°60' W 118°60'3 3.4
2014-Oct-22 01:33N 31°57' W 118°60'1110.6
2014-Oct-22 00:32N 31°46' W 119°00'1010.8
2014-Oct-21 23:33N 31°35' W 119°01'1111.1
2014-Oct-21 22:31N 31°24' W 119°02'1010.4
2014-Oct-21 21:33N 31°15' W 118°57'1110.7
2014-Oct-21 20:33N 31°06' W 118°51'1111.1
2014-Oct-21 19:33N 30°56' W 118°43'1111.1
2014-Oct-21 18:32N 30°47' W 118°36'2411.4
2014-Oct-21 16:28N 30°28' W 118°21'1311.7
2014-Oct-21 15:23N 30°17' W 118°13'1611.7
2014-Oct-21 14:03N 30°04' W 118°03'  

Dump ship's entire track history